sensor_id;sensor_type;location;lat;lon;timestamp;pressure;altitude;pressure_sealevel;temperature
75658;BMP280;64255;49.892;17.884;2023-03-01T00:01:41;99911.69;;;-3.88
75658;BMP280;64255;49.892;17.884;2023-03-01T00:04:08;99915.81;;;-3.87
75658;BMP280;64255;49.892;17.884;2023-03-01T00:06:35;99923.19;;;-4.01
75658;BMP280;64255;49.892;17.884;2023-03-01T00:09:03;99921.69;;;-3.90
75658;BMP280;64255;49.892;17.884;2023-03-01T00:11:32;99925.66;;;-3.71
75658;BMP280;64255;49.892;17.884;2023-03-01T00:14:02;99929.06;;;-3.71
75658;BMP280;64255;49.892;17.884;2023-03-01T00:16:39;99930.00;;;-3.88
75658;BMP280;64255;49.892;17.884;2023-03-01T00:19:11;99926.56;;;-3.67
75658;BMP280;64255;49.892;17.884;2023-03-01T00:21:39;99926.72;;;-3.85
75658;BMP280;64255;49.892;17.884;2023-03-01T00:24:08;99927.38;;;-3.88
75658;BMP280;64255;49.892;17.884;2023-03-01T00:26:35;99924.50;;;-3.95
75658;BMP280;64255;49.892;17.884;2023-03-01T00:29:03;99918.88;;;-4.18
75658;BMP280;64255;49.892;17.884;2023-03-01T00:31:32;99925.50;;;-4.21
75658;BMP280;64255;49.892;17.884;2023-03-01T00:34:03;99915.22;;;-4.26
75658;BMP280;64255;49.892;17.884;2023-03-01T00:36:36;99917.22;;;-4.23
75658;BMP280;64255;49.892;17.884;2023-03-01T00:39:09;99915.47;;;-4.19
75658;BMP280;64255;49.892;17.884;2023-03-01T00:41:38;99905.47;;;-4.17
75658;BMP280;64255;49.892;17.884;2023-03-01T00:44:05;99907.44;;;-4.14
75658;BMP280;64255;49.892;17.884;2023-03-01T00:46:32;99906.78;;;-4.23
75658;BMP280;64255;49.892;17.884;2023-03-01T00:48:59;99905.22;;;-4.24
75658;BMP280;64255;49.892;17.884;2023-03-01T00:51:28;99892.09;;;-4.03
75658;BMP280;64255;49.892;17.884;2023-03-01T00:53:59;99906.53;;;-3.50
75658;BMP280;64255;49.892;17.884;2023-03-01T00:56:28;99901.19;;;-4.00
75658;BMP280;64255;49.892;17.884;2023-03-01T00:58:56;99907.22;;;-4.08
75658;BMP280;64255;49.892;17.884;2023-03-01T01:01:27;99906.56;;;-4.18
75658;BMP280;64255;49.892;17.884;2023-03-01T01:03:59;99911.78;;;-4.18
75658;BMP280;64255;49.892;17.884;2023-03-01T01:06:31;99911.59;;;-4.13
75658;BMP280;64255;49.892;17.884;2023-03-01T01:08:59;99913.13;;;-4.12
75658;BMP280;64255;49.892;17.884;2023-03-01T01:11:29;99922.38;;;-4.35
75658;BMP280;64255;49.892;17.884;2023-03-01T01:13:58;99910.53;;;-4.33
75658;BMP280;64255;49.892;17.884;2023-03-01T01:16:27;99910.75;;;-4.26
75658;BMP280;64255;49.892;17.884;2023-03-01T01:18:56;99910.91;;;-4.43
75658;BMP280;64255;49.892;17.884;2023-03-01T01:21:25;99908.47;;;-4.27
75658;BMP280;64255;49.892;17.884;2023-03-01T01:23:52;99904.16;;;-4.44
75658;BMP280;64255;49.892;17.884;2023-03-01T01:26:24;99903.22;;;-4.48
75658;BMP280;64255;49.892;17.884;2023-03-01T01:28:53;99905.78;;;-4.61
75658;BMP280;64255;49.892;17.884;2023-03-01T01:31:21;99904.00;;;-4.69
75658;BMP280;64255;49.892;17.884;2023-03-01T01:33:49;99900.91;;;-4.62
75658;BMP280;64255;49.892;17.884;2023-03-01T01:36:17;99907.78;;;-4.58
75658;BMP280;64255;49.892;17.884;2023-03-01T01:38:44;99901.22;;;-4.64
75658;BMP280;64255;49.892;17.884;2023-03-01T01:41:13;99893.94;;;-4.58
75658;BMP280;64255;49.892;17.884;2023-03-01T01:43:49;99898.16;;;-4.45
75658;BMP280;64255;49.892;17.884;2023-03-01T01:46:30;99887.88;;;-4.50
75658;BMP280;64255;49.892;17.884;2023-03-01T01:51:44;99893.84;;;-4.49
75658;BMP280;64255;49.892;17.884;2023-03-01T01:54:38;99889.59;;;-4.54
75658;BMP280;64255;49.892;17.884;2023-03-01T01:57:16;99886.97;;;-4.54
75658;BMP280;64255;49.892;17.884;2023-03-01T01:59:52;99890.88;;;-4.39
75658;BMP280;64255;49.892;17.884;2023-03-01T02:02:21;99890.69;;;-4.55
75658;BMP280;64255;49.892;17.884;2023-03-01T02:05:00;99884.75;;;-4.64
75658;BMP280;64255;49.892;17.884;2023-03-01T02:07:28;99879.28;;;-4.72
75658;BMP280;64255;49.892;17.884;2023-03-01T02:09:57;99875.75;;;-4.76
75658;BMP280;64255;49.892;17.884;2023-03-01T02:12:26;99881.44;;;-4.74
75658;BMP280;64255;49.892;17.884;2023-03-01T02:14:52;99873.78;;;-4.79
75658;BMP280;64255;49.892;17.884;2023-03-01T02:17:21;99870.97;;;-4.74
75658;BMP280;64255;49.892;17.884;2023-03-01T02:22:34;99872.50;;;-4.73
75658;BMP280;64255;49.892;17.884;2023-03-01T02:30:56;99859.59;;;-4.99
75658;BMP280;64255;49.892;17.884;2023-03-01T02:33:26;99862.06;;;-5.03
75658;BMP280;64255;49.892;17.884;2023-03-01T02:35:55;99862.38;;;-4.95
75658;BMP280;64255;49.892;17.884;2023-03-01T02:38:24;99864.47;;;-4.89
75658;BMP280;64255;49.892;17.884;2023-03-01T02:40:52;99859.94;;;-5.00
75658;BMP280;64255;49.892;17.884;2023-03-01T02:43:24;99859.66;;;-5.08
75658;BMP280;64255;49.892;17.884;2023-03-01T02:45:59;99852.44;;;-5.11
75658;BMP280;64255;49.892;17.884;2023-03-01T02:48:42;99852.09;;;-5.00
75658;BMP280;64255;49.892;17.884;2023-03-01T02:57:18;99839.22;;;-5.06
75658;BMP280;64255;49.892;17.884;2023-03-01T02:59:45;99841.50;;;-5.04
75658;BMP280;64255;49.892;17.884;2023-03-01T03:02:26;99845.06;;;-5.09
75658;BMP280;64255;49.892;17.884;2023-03-01T03:04:52;99845.94;;;-5.05
75658;BMP280;64255;49.892;17.884;2023-03-01T03:07:19;99842.34;;;-5.12
75658;BMP280;64255;49.892;17.884;2023-03-01T03:09:46;99842.44;;;-5.09
75658;BMP280;64255;49.892;17.884;2023-03-01T03:12:14;99840.41;;;-5.03
75658;BMP280;64255;49.892;17.884;2023-03-01T03:14:41;99839.63;;;-5.04
75658;BMP280;64255;49.892;17.884;2023-03-01T03:17:08;99830.44;;;-4.59
75658;BMP280;64255;49.892;17.884;2023-03-01T03:19:35;99824.69;;;-4.73
75658;BMP280;64255;49.892;17.884;2023-03-01T03:22:02;99825.53;;;-4.81
75658;BMP280;64255;49.892;17.884;2023-03-01T03:24:30;99824.81;;;-4.91
75658;BMP280;64255;49.892;17.884;2023-03-01T03:26:57;99819.91;;;-4.92
75658;BMP280;64255;49.892;17.884;2023-03-01T03:29:23;99819.31;;;-5.19
75658;BMP280;64255;49.892;17.884;2023-03-01T03:31:51;99818.38;;;-5.14
75658;BMP280;64255;49.892;17.884;2023-03-01T03:34:18;99817.97;;;-5.25
75658;BMP280;64255;49.892;17.884;2023-03-01T03:36:46;99813.13;;;-5.36
75658;BMP280;64255;49.892;17.884;2023-03-01T03:39:13;99815.72;;;-5.36
75658;BMP280;64255;49.892;17.884;2023-03-01T03:41:40;99822.19;;;-5.42
75658;BMP280;64255;49.892;17.884;2023-03-01T03:44:07;99817.09;;;-5.29
75658;BMP280;64255;49.892;17.884;2023-03-01T03:46:35;99813.81;;;-5.26
75658;BMP280;64255;49.892;17.884;2023-03-01T03:49:02;99824.69;;;-5.15
75658;BMP280;64255;49.892;17.884;2023-03-01T03:51:30;99823.47;;;-5.18
75658;BMP280;64255;49.892;17.884;2023-03-01T03:53:57;99831.56;;;-5.11
75658;BMP280;64255;49.892;17.884;2023-03-01T03:56:24;99823.16;;;-5.17
75658;BMP280;64255;49.892;17.884;2023-03-01T03:58:52;99822.66;;;-5.10
75658;BMP280;64255;49.892;17.884;2023-03-01T04:01:20;99819.91;;;-5.13
75658;BMP280;64255;49.892;17.884;2023-03-01T04:03:47;99810.53;;;-5.14
75658;BMP280;64255;49.892;17.884;2023-03-01T04:06:14;99816.50;;;-5.14
75658;BMP280;64255;49.892;17.884;2023-03-01T04:08:42;99818.44;;;-5.02
75658;BMP280;64255;49.892;17.884;2023-03-01T04:11:10;99821.06;;;-5.02
75658;BMP280;64255;49.892;17.884;2023-03-01T04:13:42;99819.34;;;-4.98
75658;BMP280;64255;49.892;17.884;2023-03-01T04:16:09;99825.66;;;-4.99
75658;BMP280;64255;49.892;17.884;2023-03-01T04:18:37;99827.50;;;-4.99
75658;BMP280;64255;49.892;17.884;2023-03-01T04:21:04;99826.16;;;-5.06
75658;BMP280;64255;49.892;17.884;2023-03-01T04:23:32;99829.44;;;-5.18
75658;BMP280;64255;49.892;17.884;2023-03-01T04:25:59;99819.03;;;-5.26
75658;BMP280;64255;49.892;17.884;2023-03-01T04:28:35;99823.50;;;-5.27
75658;BMP280;64255;49.892;17.884;2023-03-01T04:31:10;99813.59;;;-5.42
75658;BMP280;64255;49.892;17.884;2023-03-01T04:33:45;99817.09;;;-5.38
75658;BMP280;64255;49.892;17.884;2023-03-01T04:36:16;99813.91;;;-5.44
75658;BMP280;64255;49.892;17.884;2023-03-01T04:38:44;99813.69;;;-5.30
75658;BMP280;64255;49.892;17.884;2023-03-01T04:41:13;99809.56;;;-5.40
75658;BMP280;64255;49.892;17.884;2023-03-01T04:43:41;99813.41;;;-5.37
75658;BMP280;64255;49.892;17.884;2023-03-01T04:46:13;99809.16;;;-5.42
75658;BMP280;64255;49.892;17.884;2023-03-01T04:48:43;99806.63;;;-5.29
75658;BMP280;64255;49.892;17.884;2023-03-01T04:51:11;99810.75;;;-5.28
75658;BMP280;64255;49.892;17.884;2023-03-01T04:53:40;99814.88;;;-5.27
75658;BMP280;64255;49.892;17.884;2023-03-01T04:56:07;99805.53;;;-5.28
75658;BMP280;64255;49.892;17.884;2023-03-01T04:58:35;99811.03;;;-5.21
75658;BMP280;64255;49.892;17.884;2023-03-01T05:01:16;99819.00;;;-5.18
75658;BMP280;64255;49.892;17.884;2023-03-01T05:03:50;99830.03;;;-5.12
75658;BMP280;64255;49.892;17.884;2023-03-01T05:06:19;99828.63;;;-4.88
75658;BMP280;64255;49.892;17.884;2023-03-01T05:08:47;99824.31;;;-4.63
75658;BMP280;64255;49.892;17.884;2023-03-01T05:11:14;99823.94;;;-4.74
75658;BMP280;64255;49.892;17.884;2023-03-01T05:13:42;99822.63;;;-5.01
75658;BMP280;64255;49.892;17.884;2023-03-01T05:16:10;99824.47;;;-5.32
75658;BMP280;64255;49.892;17.884;2023-03-01T05:18:38;99835.03;;;-5.37
75658;BMP280;64255;49.892;17.884;2023-03-01T05:21:10;99818.84;;;-5.51
75658;BMP280;64255;49.892;17.884;2023-03-01T05:23:38;99825.94;;;-5.52
75658;BMP280;64255;49.892;17.884;2023-03-01T05:26:07;99837.06;;;-5.34
75658;BMP280;64255;49.892;17.884;2023-03-01T05:28:35;99823.22;;;-5.34
75658;BMP280;64255;49.892;17.884;2023-03-01T05:31:02;99821.94;;;-5.58
75658;BMP280;64255;49.892;17.884;2023-03-01T05:33:29;99829.81;;;-5.67
75658;BMP280;64255;49.892;17.884;2023-03-01T05:36:00;99831.41;;;-5.44
75658;BMP280;64255;49.892;17.884;2023-03-01T05:38:27;99830.03;;;-5.42
75658;BMP280;64255;49.892;17.884;2023-03-01T05:40:54;99830.31;;;-5.43
75658;BMP280;64255;49.892;17.884;2023-03-01T05:43:22;99841.09;;;-5.45
75658;BMP280;64255;49.892;17.884;2023-03-01T05:45:49;99839.16;;;-5.18
75658;BMP280;64255;49.892;17.884;2023-03-01T05:48:17;99834.69;;;-5.26
75658;BMP280;64255;49.892;17.884;2023-03-01T05:50:45;99842.28;;;-5.34
75658;BMP280;64255;49.892;17.884;2023-03-01T05:53:17;99848.34;;;-5.21
75658;BMP280;64255;49.892;17.884;2023-03-01T05:55:44;99851.16;;;-5.05
75658;BMP280;64255;49.892;17.884;2023-03-01T05:58:18;99850.28;;;-5.09
75658;BMP280;64255;49.892;17.884;2023-03-01T06:00:48;99849.59;;;-5.18
75658;BMP280;64255;49.892;17.884;2023-03-01T06:03:17;99844.44;;;-5.36
75658;BMP280;64255;49.892;17.884;2023-03-01T06:05:45;99850.69;;;-5.28
75658;BMP280;64255;49.892;17.884;2023-03-01T06:08:13;99843.88;;;-5.20
75658;BMP280;64255;49.892;17.884;2023-03-01T06:10:41;99852.97;;;-5.26
75658;BMP280;64255;49.892;17.884;2023-03-01T06:13:08;99841.88;;;-5.14
75658;BMP280;64255;49.892;17.884;2023-03-01T06:15:36;99855.97;;;-4.86
75658;BMP280;64255;49.892;17.884;2023-03-01T06:18:03;99847.72;;;-4.88
75658;BMP280;64255;49.892;17.884;2023-03-01T06:20:31;99846.94;;;-4.88
75658;BMP280;64255;49.892;17.884;2023-03-01T06:22:58;99848.91;;;-4.85
75658;BMP280;64255;49.892;17.884;2023-03-01T06:25:27;99846.38;;;-4.73
75658;BMP280;64255;49.892;17.884;2023-03-01T06:27:55;99837.66;;;-4.77
75658;BMP280;64255;49.892;17.884;2023-03-01T06:30:25;99845.41;;;-4.47
75658;BMP280;64255;49.892;17.884;2023-03-01T06:32:53;99837.38;;;-4.63
75658;BMP280;64255;49.892;17.884;2023-03-01T06:35:20;99851.34;;;-4.37
75658;BMP280;64255;49.892;17.884;2023-03-01T06:37:47;99840.09;;;-4.38
75658;BMP280;64255;49.892;17.884;2023-03-01T06:40:16;99832.22;;;-4.17
75658;BMP280;64255;49.892;17.884;2023-03-01T06:42:49;99843.25;;;-4.11
75658;BMP280;64255;49.892;17.884;2023-03-01T06:45:19;99845.56;;;-3.85
75658;BMP280;64255;49.892;17.884;2023-03-01T06:47:47;99840.72;;;-3.74
75658;BMP280;64255;49.892;17.884;2023-03-01T06:50:16;99840.63;;;-3.65
75658;BMP280;64255;49.892;17.884;2023-03-01T06:52:44;99848.97;;;-3.84
75658;BMP280;64255;49.892;17.884;2023-03-01T06:55:13;99834.38;;;-3.85
75658;BMP280;64255;49.892;17.884;2023-03-01T06:57:40;99844.09;;;-3.73
75658;BMP280;64255;49.892;17.884;2023-03-01T07:00:09;99838.09;;;-3.37
75658;BMP280;64255;49.892;17.884;2023-03-01T07:02:37;99848.91;;;-3.38
75658;BMP280;64255;49.892;17.884;2023-03-01T07:05:04;99844.97;;;-3.32
75658;BMP280;64255;49.892;17.884;2023-03-01T07:07:31;99847.16;;;-3.22
75658;BMP280;64255;49.892;17.884;2023-03-01T07:09:59;99840.22;;;-3.01
75658;BMP280;64255;49.892;17.884;2023-03-01T07:12:26;99838.94;;;-2.95
75658;BMP280;64255;49.892;17.884;2023-03-01T07:14:54;99837.25;;;-3.00
75658;BMP280;64255;49.892;17.884;2023-03-01T07:17:21;99833.81;;;-2.63
75658;BMP280;64255;49.892;17.884;2023-03-01T07:19:49;99835.53;;;-2.39
75658;BMP280;64255;49.892;17.884;2023-03-01T07:22:16;99839.13;;;-2.31
75658;BMP280;64255;49.892;17.884;2023-03-01T07:24:44;99848.63;;;-2.10
75658;BMP280;64255;49.892;17.884;2023-03-01T07:27:11;99836.06;;;-1.89
75658;BMP280;64255;49.892;17.884;2023-03-01T07:29:39;99834.41;;;-1.93
75658;BMP280;64255;49.892;17.884;2023-03-01T07:32:07;99827.97;;;-1.64
75658;BMP280;64255;49.892;17.884;2023-03-01T07:34:34;99836.16;;;-1.49
75658;BMP280;64255;49.892;17.884;2023-03-01T07:37:01;99823.09;;;-1.30
75658;BMP280;64255;49.892;17.884;2023-03-01T07:39:28;99832.09;;;-1.11
75658;BMP280;64255;49.892;17.884;2023-03-01T07:41:56;99832.78;;;-0.95
75658;BMP280;64255;49.892;17.884;2023-03-01T07:44:23;99844.34;;;-0.80
75658;BMP280;64255;49.892;17.884;2023-03-01T07:46:51;99838.72;;;-0.58
75658;BMP280;64255;49.892;17.884;2023-03-01T07:49:18;99832.53;;;0.54
75658;BMP280;64255;49.892;17.884;2023-03-01T07:51:44;99831.06;;;2.14
75658;BMP280;64255;49.892;17.884;2023-03-01T07:54:12;99824.56;;;1.52
75658;BMP280;64255;49.892;17.884;2023-03-01T07:56:39;99830.13;;;2.52
75658;BMP280;64255;49.892;17.884;2023-03-01T07:59:07;99829.56;;;3.16
75658;BMP280;64255;49.892;17.884;2023-03-01T08:01:34;99835.66;;;3.64
75658;BMP280;64255;49.892;17.884;2023-03-01T08:04:01;99827.28;;;3.98
75658;BMP280;64255;49.892;17.884;2023-03-01T08:06:28;99828.06;;;3.95
75658;BMP280;64255;49.892;17.884;2023-03-01T08:08:56;99828.06;;;3.30
75658;BMP280;64255;49.892;17.884;2023-03-01T08:11:23;99823.84;;;4.12
75658;BMP280;64255;49.892;17.884;2023-03-01T08:13:50;99818.88;;;4.28
75658;BMP280;64255;49.892;17.884;2023-03-01T08:16:18;99824.97;;;4.18
75658;BMP280;64255;49.892;17.884;2023-03-01T08:18:45;99811.19;;;4.59
75658;BMP280;64255;49.892;17.884;2023-03-01T08:21:16;99807.19;;;4.22
75658;BMP280;64255;49.892;17.884;2023-03-01T08:23:44;99803.41;;;4.12
75658;BMP280;64255;49.892;17.884;2023-03-01T08:26:20;99806.16;;;4.79
75658;BMP280;64255;49.892;17.884;2023-03-01T08:28:49;99802.59;;;6.22
75658;BMP280;64255;49.892;17.884;2023-03-01T08:31:31;99804.50;;;5.00
75658;BMP280;64255;49.892;17.884;2023-03-01T08:34:03;99805.47;;;5.21
75658;BMP280;64255;49.892;17.884;2023-03-01T08:36:39;99793.75;;;5.18
75658;BMP280;64255;49.892;17.884;2023-03-01T08:39:09;99795.25;;;7.80
75658;BMP280;64255;49.892;17.884;2023-03-01T08:41:37;99780.28;;;5.40
75658;BMP280;64255;49.892;17.884;2023-03-01T08:44:05;99776.19;;;4.82
75658;BMP280;64255;49.892;17.884;2023-03-01T08:46:37;99778.16;;;6.00
75658;BMP280;64255;49.892;17.884;2023-03-01T08:49:06;99771.31;;;6.03
75658;BMP280;64255;49.892;17.884;2023-03-01T08:51:34;99767.91;;;5.26
75658;BMP280;64255;49.892;17.884;2023-03-01T08:54:01;99775.22;;;5.94
75658;BMP280;64255;49.892;17.884;2023-03-01T08:56:28;99765.31;;;5.95
75658;BMP280;64255;49.892;17.884;2023-03-01T08:58:55;99766.84;;;4.56
75658;BMP280;64255;49.892;17.884;2023-03-01T09:01:22;99761.94;;;4.54
75658;BMP280;64255;49.892;17.884;2023-03-01T09:03:50;99772.72;;;4.15
75658;BMP280;64255;49.892;17.884;2023-03-01T09:06:17;99769.53;;;4.52
75658;BMP280;64255;49.892;17.884;2023-03-01T09:08:47;99771.28;;;5.30
75658;BMP280;64255;49.892;17.884;2023-03-01T09:11:18;99767.16;;;4.65
75658;BMP280;64255;49.892;17.884;2023-03-01T09:13:48;99770.84;;;4.86
75658;BMP280;64255;49.892;17.884;2023-03-01T09:16:19;99768.94;;;4.12
75658;BMP280;64255;49.892;17.884;2023-03-01T09:18:53;99763.50;;;5.50
75658;BMP280;64255;49.892;17.884;2023-03-01T09:21:23;99765.28;;;3.73
75658;BMP280;64255;49.892;17.884;2023-03-01T09:23:50;99767.53;;;2.88
75658;BMP280;64255;49.892;17.884;2023-03-01T09:26:20;99764.75;;;4.89
75658;BMP280;64255;49.892;17.884;2023-03-01T09:28:54;99763.25;;;4.10
75658;BMP280;64255;49.892;17.884;2023-03-01T09:31:23;99766.81;;;3.46
75658;BMP280;64255;49.892;17.884;2023-03-01T09:33:53;99762.94;;;4.01
75658;BMP280;64255;49.892;17.884;2023-03-01T09:36:24;99769.00;;;3.98
75658;BMP280;64255;49.892;17.884;2023-03-01T09:38:51;99763.72;;;3.90
75658;BMP280;64255;49.892;17.884;2023-03-01T09:42:00;99767.41;;;4.11
75658;BMP280;64255;49.892;17.884;2023-03-01T09:45:05;99772.47;;;3.66
75658;BMP280;64255;49.892;17.884;2023-03-01T09:47:36;99775.06;;;3.95
75658;BMP280;64255;49.892;17.884;2023-03-01T09:50:12;99763.00;;;4.64
75658;BMP280;64255;49.892;17.884;2023-03-01T09:52:47;99763.75;;;3.69
75658;BMP280;64255;49.892;17.884;2023-03-01T10:07:53;99766.41;;;3.00
75658;BMP280;64255;49.892;17.884;2023-03-01T10:10:38;99752.81;;;3.49
75658;BMP280;64255;49.892;17.884;2023-03-01T10:13:57;99762.63;;;3.63
75658;BMP280;64255;49.892;17.884;2023-03-01T10:16:54;99746.75;;;3.34
75658;BMP280;64255;49.892;17.884;2023-03-01T10:19:44;99749.75;;;3.65
75658;BMP280;64255;49.892;17.884;2023-03-01T10:22:21;99750.53;;;3.36
75658;BMP280;64255;49.892;17.884;2023-03-01T10:24:56;99748.66;;;3.30
75658;BMP280;64255;49.892;17.884;2023-03-01T10:27:29;99749.81;;;3.18
75658;BMP280;64255;49.892;17.884;2023-03-01T10:30:36;99738.06;;;3.48
75658;BMP280;64255;49.892;17.884;2023-03-01T10:33:37;99728.16;;;3.84
75658;BMP280;64255;49.892;17.884;2023-03-01T10:36:05;99729.34;;;3.43
75658;BMP280;64255;49.892;17.884;2023-03-01T10:38:55;99732.69;;;3.80
75658;BMP280;64255;49.892;17.884;2023-03-01T10:41:26;99731.63;;;3.52
75658;BMP280;64255;49.892;17.884;2023-03-01T10:43:58;99733.88;;;3.32
75658;BMP280;64255;49.892;17.884;2023-03-01T10:46:36;99727.41;;;3.73
75658;BMP280;64255;49.892;17.884;2023-03-01T10:49:22;99720.31;;;3.30
75658;BMP280;64255;49.892;17.884;2023-03-01T10:51:52;99728.16;;;3.84
75658;BMP280;64255;49.892;17.884;2023-03-01T10:54:30;99718.31;;;3.81
75658;BMP280;64255;49.892;17.884;2023-03-01T10:57:03;99713.88;;;3.35
75658;BMP280;64255;49.892;17.884;2023-03-01T10:59:37;99706.56;;;3.89
75658;BMP280;64255;49.892;17.884;2023-03-01T11:02:26;99704.72;;;3.72
75658;BMP280;64255;49.892;17.884;2023-03-01T11:07:26;99702.78;;;3.87
75658;BMP280;64255;49.892;17.884;2023-03-01T11:09:54;99703.22;;;3.74
75658;BMP280;64255;49.892;17.884;2023-03-01T11:12:21;99699.81;;;3.56
75658;BMP280;64255;49.892;17.884;2023-03-01T11:14:54;99697.81;;;3.96
75658;BMP280;64255;49.892;17.884;2023-03-01T11:17:30;99696.03;;;3.68
75658;BMP280;64255;49.892;17.884;2023-03-01T11:23:05;99688.81;;;3.79
75658;BMP280;64255;49.892;17.884;2023-03-01T11:25:43;99694.53;;;3.56
75658;BMP280;64255;49.892;17.884;2023-03-01T11:28:17;99682.38;;;3.73
75658;BMP280;64255;49.892;17.884;2023-03-01T11:31:07;99679.31;;;3.89
75658;BMP280;64255;49.892;17.884;2023-03-01T11:34:05;99681.69;;;3.43
75658;BMP280;64255;49.892;17.884;2023-03-01T11:36:58;99674.28;;;4.16
75658;BMP280;64255;49.892;17.884;2023-03-01T11:39:56;99668.56;;;4.18
75658;BMP280;64255;49.892;17.884;2023-03-01T11:43:09;99670.56;;;3.99
75658;BMP280;64255;49.892;17.884;2023-03-01T11:54:58;99671.44;;;3.71
75658;BMP280;64255;49.892;17.884;2023-03-01T11:58:03;99651.41;;;3.55
75658;BMP280;64255;49.892;17.884;2023-03-01T12:00:41;99654.88;;;3.41
75658;BMP280;64255;49.892;17.884;2023-03-01T12:06:33;99649.56;;;3.49
75658;BMP280;64255;49.892;17.884;2023-03-01T12:21:17;99639.03;;;4.16
75658;BMP280;64255;49.892;17.884;2023-03-01T12:24:29;99641.56;;;4.41
75658;BMP280;64255;49.892;17.884;2023-03-01T12:27:16;99634.84;;;4.22
75658;BMP280;64255;49.892;17.884;2023-03-01T12:30:25;99630.47;;;3.94
75658;BMP280;64255;49.892;17.884;2023-03-01T12:36:12;99621.66;;;4.11
75658;BMP280;64255;49.892;17.884;2023-03-01T12:39:19;99616.09;;;4.47
75658;BMP280;64255;49.892;17.884;2023-03-01T12:45:12;99616.78;;;4.62
75658;BMP280;64255;49.892;17.884;2023-03-01T12:50:52;99609.78;;;5.17
75658;BMP280;64255;49.892;17.884;2023-03-01T12:53:35;99608.38;;;4.67
75658;BMP280;64255;49.892;17.884;2023-03-01T12:56:15;99614.94;;;4.52
75658;BMP280;64255;49.892;17.884;2023-03-01T13:02:25;99594.25;;;4.78
75658;BMP280;64255;49.892;17.884;2023-03-01T13:11:03;99602.22;;;4.78
75658;BMP280;64255;49.892;17.884;2023-03-01T13:13:31;99609.97;;;4.58
75658;BMP280;64255;49.892;17.884;2023-03-01T13:16:38;99594.25;;;5.51
75658;BMP280;64255;49.892;17.884;2023-03-01T13:19:16;99594.56;;;4.83
75658;BMP280;64255;49.892;17.884;2023-03-01T13:21:45;99595.50;;;4.66
75658;BMP280;64255;49.892;17.884;2023-03-01T13:24:40;99600.59;;;4.46
75658;BMP280;64255;49.892;17.884;2023-03-01T13:27:27;99601.31;;;4.46
75658;BMP280;64255;49.892;17.884;2023-03-01T13:30:00;99589.69;;;4.33
75658;BMP280;64255;49.892;17.884;2023-03-01T13:32:33;99587.28;;;4.95
75658;BMP280;64255;49.892;17.884;2023-03-01T13:49:56;99568.78;;;4.88
75658;BMP280;64255;49.892;17.884;2023-03-01T13:52:39;99577.47;;;4.88
75658;BMP280;64255;49.892;17.884;2023-03-01T13:55:29;99565.34;;;4.91
75658;BMP280;64255;49.892;17.884;2023-03-01T13:58:02;99561.09;;;4.59
75658;BMP280;64255;49.892;17.884;2023-03-01T14:03:14;99572.53;;;4.48
75658;BMP280;64255;49.892;17.884;2023-03-01T14:06:04;99568.50;;;4.78
75658;BMP280;64255;49.892;17.884;2023-03-01T14:08:35;99562.31;;;4.89
75658;BMP280;64255;49.892;17.884;2023-03-01T14:20:38;99561.81;;;4.17
75658;BMP280;64255;49.892;17.884;2023-03-01T14:23:15;99547.78;;;4.20
75658;BMP280;64255;49.892;17.884;2023-03-01T14:25:56;99555.44;;;4.57
75658;BMP280;64255;49.892;17.884;2023-03-01T14:28:28;99565.69;;;4.51
75658;BMP280;64255;49.892;17.884;2023-03-01T14:30:58;99564.34;;;4.32
75658;BMP280;64255;49.892;17.884;2023-03-01T14:33:32;99568.34;;;4.93
75658;BMP280;64255;49.892;17.884;2023-03-01T14:36:04;99561.75;;;4.66
75658;BMP280;64255;49.892;17.884;2023-03-01T14:38:46;99556.00;;;4.33
75658;BMP280;64255;49.892;17.884;2023-03-01T14:41:25;99563.34;;;4.11
75658;BMP280;64255;49.892;17.884;2023-03-01T14:44:02;99560.97;;;4.24
75658;BMP280;64255;49.892;17.884;2023-03-01T14:46:37;99554.91;;;4.69
75658;BMP280;64255;49.892;17.884;2023-03-01T14:49:20;99561.72;;;4.70
75658;BMP280;64255;49.892;17.884;2023-03-01T14:52:21;99565.97;;;4.11
75658;BMP280;64255;49.892;17.884;2023-03-01T14:54:53;99558.28;;;4.28
75658;BMP280;64255;49.892;17.884;2023-03-01T14:57:25;99551.44;;;4.30
75658;BMP280;64255;49.892;17.884;2023-03-01T14:59:59;99553.72;;;4.77
75658;BMP280;64255;49.892;17.884;2023-03-01T15:02:29;99554.53;;;4.70
75658;BMP280;64255;49.892;17.884;2023-03-01T15:05:01;99554.88;;;4.76
75658;BMP280;64255;49.892;17.884;2023-03-01T15:07:40;99553.72;;;4.35
75658;BMP280;64255;49.892;17.884;2023-03-01T15:10:24;99558.84;;;4.53
75658;BMP280;64255;49.892;17.884;2023-03-01T15:12:53;99549.16;;;4.36
75658;BMP280;64255;49.892;17.884;2023-03-01T15:18:00;99550.94;;;4.01
75658;BMP280;64255;49.892;17.884;2023-03-01T15:20:30;99560.81;;;3.89
75658;BMP280;64255;49.892;17.884;2023-03-01T15:22:58;99553.88;;;4.10
75658;BMP280;64255;49.892;17.884;2023-03-01T15:25:29;99545.13;;;4.20
75658;BMP280;64255;49.892;17.884;2023-03-01T15:27:59;99551.44;;;4.34
75658;BMP280;64255;49.892;17.884;2023-03-01T15:30:34;99546.09;;;4.41
75658;BMP280;64255;49.892;17.884;2023-03-01T15:35:53;99540.50;;;3.72
75658;BMP280;64255;49.892;17.884;2023-03-01T15:38:28;99532.88;;;3.81
75658;BMP280;64255;49.892;17.884;2023-03-01T15:41:02;99536.19;;;3.18
75658;BMP280;64255;49.892;17.884;2023-03-01T15:43:45;99535.44;;;3.07
75658;BMP280;64255;49.892;17.884;2023-03-01T15:46:26;99532.47;;;2.94
75658;BMP280;64255;49.892;17.884;2023-03-01T15:48:59;99536.63;;;2.88
75658;BMP280;64255;49.892;17.884;2023-03-01T15:51:36;99536.19;;;3.18
75658;BMP280;64255;49.892;17.884;2023-03-01T15:54:17;99537.41;;;2.41
75658;BMP280;64255;49.892;17.884;2023-03-01T15:56:45;99545.38;;;2.59
75658;BMP280;64255;49.892;17.884;2023-03-01T15:59:13;99545.63;;;3.19
75658;BMP280;64255;49.892;17.884;2023-03-01T16:01:41;99549.13;;;2.51
75658;BMP280;64255;49.892;17.884;2023-03-01T16:04:16;99553.28;;;2.70
75658;BMP280;64255;49.892;17.884;2023-03-01T16:06:44;99540.81;;;2.49
75658;BMP280;64255;49.892;17.884;2023-03-01T16:09:11;99548.78;;;2.63
75658;BMP280;64255;49.892;17.884;2023-03-01T16:11:39;99543.06;;;2.11
75658;BMP280;64255;49.892;17.884;2023-03-01T16:14:06;99550.25;;;2.61
75658;BMP280;64255;49.892;17.884;2023-03-01T16:16:33;99545.34;;;2.88
75658;BMP280;64255;49.892;17.884;2023-03-01T16:19:00;99551.78;;;2.62
75658;BMP280;64255;49.892;17.884;2023-03-01T16:21:28;99553.59;;;3.01
75658;BMP280;64255;49.892;17.884;2023-03-01T16:23:55;99555.16;;;2.15